sensor_id;sensor_type;location;lat;lon;timestamp;P1;durP1;ratioP1;P2;durP2;ratioP2
1366;SDS011;16877;48.810;9.282;2023-10-08T00:02:22;7.47;;;5.00;;
1366;SDS011;16877;48.810;9.282;2023-10-08T00:04:51;6.47;;;4.73;;
1366;SDS011;16877;48.810;9.282;2023-10-08T00:07:20;7.70;;;5.60;;
1366;SDS011;16877;48.810;9.282;2023-10-08T00:09:49;7.53;;;6.10;;
1366;SDS011;16877;48.810;9.282;2023-10-08T00:12:17;6.83;;;5.40;;
1366;SDS011;16877;48.810;9.282;2023-10-08T00:14:44;8.43;;;5.93;;
1366;SDS011;16877;48.810;9.282;2023-10-08T00:17:14;8.60;;;6.47;;
1366;SDS011;16877;48.810;9.282;2023-10-08T00:19:42;8.60;;;5.90;;
1366;SDS011;16877;48.810;9.282;2023-10-08T00:22:09;8.57;;;6.50;;
1366;SDS011;16877;48.810;9.282;2023-10-08T00:24:39;8.00;;;6.30;;
1366;SDS011;16877;48.810;9.282;2023-10-08T00:27:07;8.80;;;6.70;;
1366;SDS011;16877;48.810;9.282;2023-10-08T00:29:34;8.57;;;6.10;;
1366;SDS011;16877;48.810;9.282;2023-10-08T00:32:04;7.90;;;6.57;;
1366;SDS011;16877;48.810;9.282;2023-10-08T00:34:37;7.60;;;6.60;;
1366;SDS011;16877;48.810;9.282;2023-10-08T00:37:07;8.93;;;6.17;;
1366;SDS011;16877;48.810;9.282;2023-10-08T00:39:35;8.67;;;6.00;;
1366;SDS011;16877;48.810;9.282;2023-10-08T00:42:06;8.63;;;7.30;;
1366;SDS011;16877;48.810;9.282;2023-10-08T00:44:33;8.83;;;7.47;;
1366;SDS011;16877;48.810;9.282;2023-10-08T00:47:06;8.27;;;7.43;;
1366;SDS011;16877;48.810;9.282;2023-10-08T00:49:36;7.87;;;7.07;;
1366;SDS011;16877;48.810;9.282;2023-10-08T00:52:19;8.30;;;6.33;;
1366;SDS011;16877;48.810;9.282;2023-10-08T00:54:54;7.80;;;6.83;;
1366;SDS011;16877;48.810;9.282;2023-10-08T00:57:35;8.27;;;6.90;;
1366;SDS011;16877;48.810;9.282;2023-10-08T01:00:07;7.33;;;6.57;;
1366;SDS011;16877;48.810;9.282;2023-10-08T01:02:41;7.63;;;6.30;;
1366;SDS011;16877;48.810;9.282;2023-10-08T01:05:14;9.07;;;7.07;;
1366;SDS011;16877;48.810;9.282;2023-10-08T01:07:44;7.47;;;6.30;;
1366;SDS011;16877;48.810;9.282;2023-10-08T01:10:13;8.63;;;6.40;;
1366;SDS011;16877;48.810;9.282;2023-10-08T01:12:46;10.00;;;7.10;;
1366;SDS011;16877;48.810;9.282;2023-10-08T01:15:28;8.03;;;6.50;;
1366;SDS011;16877;48.810;9.282;2023-10-08T01:17:56;7.00;;;5.43;;
1366;SDS011;16877;48.810;9.282;2023-10-08T01:20:26;7.50;;;6.27;;
1366;SDS011;16877;48.810;9.282;2023-10-08T01:23:02;8.40;;;6.33;;
1366;SDS011;16877;48.810;9.282;2023-10-08T01:25:32;8.20;;;6.17;;
1366;SDS011;16877;48.810;9.282;2023-10-08T01:28:00;8.27;;;6.07;;
1366;SDS011;16877;48.810;9.282;2023-10-08T01:30:33;7.80;;;6.97;;
1366;SDS011;16877;48.810;9.282;2023-10-08T01:33:06;9.07;;;6.13;;
1366;SDS011;16877;48.810;9.282;2023-10-08T01:35:36;11.60;;;6.27;;
1366;SDS011;16877;48.810;9.282;2023-10-08T01:38:05;8.77;;;7.27;;
1366;SDS011;16877;48.810;9.282;2023-10-08T01:40:32;10.13;;;7.33;;
1366;SDS011;16877;48.810;9.282;2023-10-08T01:42:59;9.17;;;6.70;;
1366;SDS011;16877;48.810;9.282;2023-10-08T01:45:25;7.27;;;6.17;;
1366;SDS011;16877;48.810;9.282;2023-10-08T01:47:54;7.13;;;5.63;;
1366;SDS011;16877;48.810;9.282;2023-10-08T01:50:22;8.33;;;6.43;;
1366;SDS011;16877;48.810;9.282;2023-10-08T01:52:50;8.07;;;6.17;;
1366;SDS011;16877;48.810;9.282;2023-10-08T01:55:18;8.10;;;6.60;;
1366;SDS011;16877;48.810;9.282;2023-10-08T01:57:47;8.70;;;6.87;;
1366;SDS011;16877;48.810;9.282;2023-10-08T02:00:16;7.07;;;6.10;;
1366;SDS011;16877;48.810;9.282;2023-10-08T02:02:44;8.33;;;5.60;;
1366;SDS011;16877;48.810;9.282;2023-10-08T02:05:12;6.27;;;5.30;;
1366;SDS011;16877;48.810;9.282;2023-10-08T02:07:40;7.63;;;5.77;;
1366;SDS011;16877;48.810;9.282;2023-10-08T02:10:08;7.80;;;6.07;;
1366;SDS011;16877;48.810;9.282;2023-10-08T02:12:37;8.67;;;6.40;;
1366;SDS011;16877;48.810;9.282;2023-10-08T02:15:04;8.97;;;6.10;;
1366;SDS011;16877;48.810;9.282;2023-10-08T02:17:32;7.60;;;5.93;;
1366;SDS011;16877;48.810;9.282;2023-10-08T02:19:58;8.00;;;5.40;;
1366;SDS011;16877;48.810;9.282;2023-10-08T02:22:25;6.37;;;5.57;;
1366;SDS011;16877;48.810;9.282;2023-10-08T02:24:52;7.50;;;5.80;;
1366;SDS011;16877;48.810;9.282;2023-10-08T02:27:20;7.50;;;6.10;;
1366;SDS011;16877;48.810;9.282;2023-10-08T02:29:49;9.23;;;6.93;;
1366;SDS011;16877;48.810;9.282;2023-10-08T02:32:15;8.07;;;6.27;;
1366;SDS011;16877;48.810;9.282;2023-10-08T02:34:43;10.17;;;5.83;;
1366;SDS011;16877;48.810;9.282;2023-10-08T02:37:10;6.40;;;5.43;;
1366;SDS011;16877;48.810;9.282;2023-10-08T02:39:37;7.40;;;6.10;;
1366;SDS011;16877;48.810;9.282;2023-10-08T02:42:05;6.30;;;5.40;;
1366;SDS011;16877;48.810;9.282;2023-10-08T02:44:35;7.70;;;5.83;;
1366;SDS011;16877;48.810;9.282;2023-10-08T02:47:08;9.73;;;5.73;;
1366;SDS011;16877;48.810;9.282;2023-10-08T02:49:37;8.57;;;6.73;;
1366;SDS011;16877;48.810;9.282;2023-10-08T02:52:05;7.73;;;6.60;;
1366;SDS011;16877;48.810;9.282;2023-10-08T02:54:34;9.20;;;7.50;;
1366;SDS011;16877;48.810;9.282;2023-10-08T02:57:02;10.00;;;7.13;;
1366;SDS011;16877;48.810;9.282;2023-10-08T02:59:35;7.70;;;6.80;;
1366;SDS011;16877;48.810;9.282;2023-10-08T03:02:05;10.87;;;6.97;;
1366;SDS011;16877;48.810;9.282;2023-10-08T03:04:40;8.23;;;6.37;;
1366;SDS011;16877;48.810;9.282;2023-10-08T03:07:08;10.10;;;7.80;;
1366;SDS011;16877;48.810;9.282;2023-10-08T03:09:46;9.57;;;7.00;;
1366;SDS011;16877;48.810;9.282;2023-10-08T03:12:15;9.53;;;6.87;;
1366;SDS011;16877;48.810;9.282;2023-10-08T03:14:42;7.37;;;5.93;;
1366;SDS011;16877;48.810;9.282;2023-10-08T03:17:16;7.50;;;6.30;;
1366;SDS011;16877;48.810;9.282;2023-10-08T03:19:45;9.43;;;7.10;;
1366;SDS011;16877;48.810;9.282;2023-10-08T03:22:12;9.23;;;6.80;;
1366;SDS011;16877;48.810;9.282;2023-10-08T03:24:43;8.30;;;6.10;;
1366;SDS011;16877;48.810;9.282;2023-10-08T03:27:13;9.23;;;6.43;;
1366;SDS011;16877;48.810;9.282;2023-10-08T03:29:45;7.10;;;5.83;;
1366;SDS011;16877;48.810;9.282;2023-10-08T03:32:13;8.70;;;6.10;;
1366;SDS011;16877;48.810;9.282;2023-10-08T03:34:45;10.47;;;7.43;;
1366;SDS011;16877;48.810;9.282;2023-10-08T03:37:12;11.60;;;6.87;;
1366;SDS011;16877;48.810;9.282;2023-10-08T03:39:45;8.17;;;6.30;;
1366;SDS011;16877;48.810;9.282;2023-10-08T03:42:25;8.07;;;6.10;;
1366;SDS011;16877;48.810;9.282;2023-10-08T03:44:58;8.53;;;6.70;;
1366;SDS011;16877;48.810;9.282;2023-10-08T03:47:36;9.80;;;7.10;;
1366;SDS011;16877;48.810;9.282;2023-10-08T03:50:04;8.17;;;6.97;;
1366;SDS011;16877;48.810;9.282;2023-10-08T03:52:32;8.93;;;6.10;;
1366;SDS011;16877;48.810;9.282;2023-10-08T03:55:02;7.57;;;6.53;;
1366;SDS011;16877;48.810;9.282;2023-10-08T03:57:39;8.53;;;6.57;;
1366;SDS011;16877;48.810;9.282;2023-10-08T04:00:13;7.63;;;6.57;;
1366;SDS011;16877;48.810;9.282;2023-10-08T04:02:44;7.80;;;6.83;;
1366;SDS011;16877;48.810;9.282;2023-10-08T04:05:19;7.67;;;5.90;;
1366;SDS011;16877;48.810;9.282;2023-10-08T04:07:52;9.50;;;7.70;;
1366;SDS011;16877;48.810;9.282;2023-10-08T04:10:42;8.13;;;7.23;;
1366;SDS011;16877;48.810;9.282;2023-10-08T04:13:23;7.93;;;6.87;;
1366;SDS011;16877;48.810;9.282;2023-10-08T04:15:49;8.07;;;6.77;;
1366;SDS011;16877;48.810;9.282;2023-10-08T04:18:17;8.23;;;7.37;;
1366;SDS011;16877;48.810;9.282;2023-10-08T04:20:45;8.10;;;6.77;;
1366;SDS011;16877;48.810;9.282;2023-10-08T04:23:25;9.57;;;7.00;;
1366;SDS011;16877;48.810;9.282;2023-10-08T04:25:52;8.93;;;6.80;;
1366;SDS011;16877;48.810;9.282;2023-10-08T04:28:19;8.70;;;6.97;;
1366;SDS011;16877;48.810;9.282;2023-10-08T04:30:47;8.87;;;7.30;;
1366;SDS011;16877;48.810;9.282;2023-10-08T04:33:15;7.90;;;6.27;;
1366;SDS011;16877;48.810;9.282;2023-10-08T04:35:44;8.00;;;6.30;;
1366;SDS011;16877;48.810;9.282;2023-10-08T04:38:16;7.97;;;6.20;;
1366;SDS011;16877;48.810;9.282;2023-10-08T04:40:46;9.67;;;6.90;;
1366;SDS011;16877;48.810;9.282;2023-10-08T04:43:20;8.87;;;6.40;;
1366;SDS011;16877;48.810;9.282;2023-10-08T04:45:50;8.60;;;6.13;;
1366;SDS011;16877;48.810;9.282;2023-10-08T04:48:18;8.77;;;6.60;;
1366;SDS011;16877;48.810;9.282;2023-10-08T04:50:45;6.80;;;6.10;;
1366;SDS011;16877;48.810;9.282;2023-10-08T04:53:22;8.40;;;6.60;;
1366;SDS011;16877;48.810;9.282;2023-10-08T04:55:56;7.97;;;6.70;;
1366;SDS011;16877;48.810;9.282;2023-10-08T04:58:24;10.70;;;8.37;;
1366;SDS011;16877;48.810;9.282;2023-10-08T05:00:58;8.90;;;7.20;;
1366;SDS011;16877;48.810;9.282;2023-10-08T05:03:43;9.30;;;7.40;;
1366;SDS011;16877;48.810;9.282;2023-10-08T05:06:32;10.77;;;7.43;;
1366;SDS011;16877;48.810;9.282;2023-10-08T05:09:13;10.80;;;8.03;;
1366;SDS011;16877;48.810;9.282;2023-10-08T05:11:49;10.20;;;7.80;;
1366;SDS011;16877;48.810;9.282;2023-10-08T05:14:30;9.57;;;7.53;;
1366;SDS011;16877;48.810;9.282;2023-10-08T05:17:04;7.63;;;6.83;;
1366;SDS011;16877;48.810;9.282;2023-10-08T05:19:36;7.77;;;6.70;;
1366;SDS011;16877;48.810;9.282;2023-10-08T05:22:26;7.93;;;6.50;;
1366;SDS011;16877;48.810;9.282;2023-10-08T05:25:20;6.90;;;5.70;;
1366;SDS011;16877;48.810;9.282;2023-10-08T05:28:00;10.30;;;6.73;;
1366;SDS011;16877;48.810;9.282;2023-10-08T05:30:34;7.20;;;5.93;;
1366;SDS011;16877;48.810;9.282;2023-10-08T05:33:05;8.30;;;7.13;;
1366;SDS011;16877;48.810;9.282;2023-10-08T05:35:39;8.50;;;6.30;;
1366;SDS011;16877;48.810;9.282;2023-10-08T05:38:20;7.67;;;6.47;;
1366;SDS011;16877;48.810;9.282;2023-10-08T05:41:24;7.33;;;6.10;;
1366;SDS011;16877;48.810;9.282;2023-10-08T05:43:53;13.10;;;7.03;;
1366;SDS011;16877;48.810;9.282;2023-10-08T05:46:38;8.73;;;7.20;;
1366;SDS011;16877;48.810;9.282;2023-10-08T05:49:31;8.57;;;6.23;;
1366;SDS011;16877;48.810;9.282;2023-10-08T05:52:20;7.40;;;6.07;;
1366;SDS011;16877;48.810;9.282;2023-10-08T05:55:01;8.50;;;6.90;;
1366;SDS011;16877;48.810;9.282;2023-10-08T05:57:47;8.07;;;6.10;;
1366;SDS011;16877;48.810;9.282;2023-10-08T06:00:17;10.37;;;7.20;;
1366;SDS011;16877;48.810;9.282;2023-10-08T06:03:11;8.97;;;6.07;;
1366;SDS011;16877;48.810;9.282;2023-10-08T06:05:52;8.27;;;6.10;;
1366;SDS011;16877;48.810;9.282;2023-10-08T06:08:40;6.70;;;5.13;;
1366;SDS011;16877;48.810;9.282;2023-10-08T06:11:14;6.13;;;4.80;;
1366;SDS011;16877;48.810;9.282;2023-10-08T06:13:52;5.97;;;5.37;;
1366;SDS011;16877;48.810;9.282;2023-10-08T06:16:25;6.53;;;5.83;;
1366;SDS011;16877;48.810;9.282;2023-10-08T06:18:56;8.40;;;7.00;;
1366;SDS011;16877;48.810;9.282;2023-10-08T06:21:23;8.20;;;7.00;;
1366;SDS011;16877;48.810;9.282;2023-10-08T06:23:52;6.80;;;5.90;;
1366;SDS011;16877;48.810;9.282;2023-10-08T06:26:21;7.30;;;5.90;;
1366;SDS011;16877;48.810;9.282;2023-10-08T06:28:50;8.27;;;6.30;;
1366;SDS011;16877;48.810;9.282;2023-10-08T06:31:23;7.17;;;5.70;;
1366;SDS011;16877;48.810;9.282;2023-10-08T06:33:51;7.77;;;6.23;;
1366;SDS011;16877;48.810;9.282;2023-10-08T06:36:18;8.47;;;6.20;;
1366;SDS011;16877;48.810;9.282;2023-10-08T06:38:49;8.03;;;6.47;;
1366;SDS011;16877;48.810;9.282;2023-10-08T06:41:20;8.90;;;6.40;;
1366;SDS011;16877;48.810;9.282;2023-10-08T06:43:54;8.13;;;6.20;;
1366;SDS011;16877;48.810;9.282;2023-10-08T06:46:28;6.77;;;5.63;;
1366;SDS011;16877;48.810;9.282;2023-10-08T06:48:57;8.10;;;6.47;;
1366;SDS011;16877;48.810;9.282;2023-10-08T06:51:24;7.10;;;5.63;;
1366;SDS011;16877;48.810;9.282;2023-10-08T06:53:51;7.60;;;6.13;;
1366;SDS011;16877;48.810;9.282;2023-10-08T06:56:20;7.40;;;5.50;;
1366;SDS011;16877;48.810;9.282;2023-10-08T06:58:48;8.03;;;5.77;;
1366;SDS011;16877;48.810;9.282;2023-10-08T07:01:18;10.20;;;6.03;;
1366;SDS011;16877;48.810;9.282;2023-10-08T07:03:46;7.47;;;5.57;;
1366;SDS011;16877;48.810;9.282;2023-10-08T07:06:14;8.07;;;6.13;;
1366;SDS011;16877;48.810;9.282;2023-10-08T07:08:50;8.27;;;6.10;;
1366;SDS011;16877;48.810;9.282;2023-10-08T07:11:21;7.60;;;6.00;;
1366;SDS011;16877;48.810;9.282;2023-10-08T07:13:48;8.20;;;5.97;;
1366;SDS011;16877;48.810;9.282;2023-10-08T07:16:17;8.00;;;5.30;;
1366;SDS011;16877;48.810;9.282;2023-10-08T07:18:48;8.10;;;5.20;;
1366;SDS011;16877;48.810;9.282;2023-10-08T07:21:17;8.33;;;6.20;;
1366;SDS011;16877;48.810;9.282;2023-10-08T07:23:53;6.70;;;5.37;;
1366;SDS011;16877;48.810;9.282;2023-10-08T07:26:23;8.10;;;6.00;;
1366;SDS011;16877;48.810;9.282;2023-10-08T07:28:50;7.30;;;5.93;;
1366;SDS011;16877;48.810;9.282;2023-10-08T07:31:18;6.63;;;5.13;;
1366;SDS011;16877;48.810;9.282;2023-10-08T07:33:47;8.83;;;6.10;;
1366;SDS011;16877;48.810;9.282;2023-10-08T07:36:21;6.27;;;5.50;;
1366;SDS011;16877;48.810;9.282;2023-10-08T07:38:47;7.80;;;5.13;;
1366;SDS011;16877;48.810;9.282;2023-10-08T07:41:14;6.33;;;5.60;;
1366;SDS011;16877;48.810;9.282;2023-10-08T07:43:43;7.40;;;5.03;;
1366;SDS011;16877;48.810;9.282;2023-10-08T07:46:11;7.07;;;5.73;;
1366;SDS011;16877;48.810;9.282;2023-10-08T07:48:40;6.33;;;4.70;;
1366;SDS011;16877;48.810;9.282;2023-10-08T07:51:08;8.43;;;5.27;;
1366;SDS011;16877;48.810;9.282;2023-10-08T07:53:34;7.40;;;5.00;;
1366;SDS011;16877;48.810;9.282;2023-10-08T07:56:04;7.33;;;5.50;;
1366;SDS011;16877;48.810;9.282;2023-10-08T07:58:33;7.57;;;5.53;;
1366;SDS011;16877;48.810;9.282;2023-10-08T08:01:03;9.30;;;5.70;;
1366;SDS011;16877;48.810;9.282;2023-10-08T08:03:32;7.37;;;5.60;;
1366;SDS011;16877;48.810;9.282;2023-10-08T08:06:01;6.67;;;5.40;;
1366;SDS011;16877;48.810;9.282;2023-10-08T08:08:31;7.40;;;6.10;;
1366;SDS011;16877;48.810;9.282;2023-10-08T08:10:58;6.17;;;4.80;;
1366;SDS011;16877;48.810;9.282;2023-10-08T08:13:30;6.00;;;5.17;;
1366;SDS011;16877;48.810;9.282;2023-10-08T08:15:58;6.83;;;5.00;;
1366;SDS011;16877;48.810;9.282;2023-10-08T08:18:35;7.37;;;5.73;;
1366;SDS011;16877;48.810;9.282;2023-10-08T08:21:03;7.47;;;5.17;;
1366;SDS011;16877;48.810;9.282;2023-10-08T08:23:30;6.80;;;5.00;;
1366;SDS011;16877;48.810;9.282;2023-10-08T08:25:57;6.50;;;4.97;;
1366;SDS011;16877;48.810;9.282;2023-10-08T08:28:36;5.90;;;5.20;;
1366;SDS011;16877;48.810;9.282;2023-10-08T08:31:04;8.17;;;5.83;;
1366;SDS011;16877;48.810;9.282;2023-10-08T08:33:39;6.53;;;5.20;;
1366;SDS011;16877;48.810;9.282;2023-10-08T08:36:18;7.53;;;4.83;;
1366;SDS011;16877;48.810;9.282;2023-10-08T08:38:46;7.70;;;5.93;;
1366;SDS011;16877;48.810;9.282;2023-10-08T08:41:13;7.47;;;5.17;;
1366;SDS011;16877;48.810;9.282;2023-10-08T08:43:43;7.50;;;5.50;;
1366;SDS011;16877;48.810;9.282;2023-10-08T08:46:10;7.33;;;5.20;;
1366;SDS011;16877;48.810;9.282;2023-10-08T08:48:40;7.70;;;5.53;;
1366;SDS011;16877;48.810;9.282;2023-10-08T08:51:09;7.17;;;5.17;;
1366;SDS011;16877;48.810;9.282;2023-10-08T08:53:37;7.10;;;5.03;;
1366;SDS011;16877;48.810;9.282;2023-10-08T08:56:04;6.93;;;5.17;;
1366;SDS011;16877;48.810;9.282;2023-10-08T08:58:34;8.03;;;5.20;;
1366;SDS011;16877;48.810;9.282;2023-10-08T09:01:02;6.33;;;5.10;;
1366;SDS011;16877;48.810;9.282;2023-10-08T09:03:31;6.93;;;5.33;;
1366;SDS011;16877;48.810;9.282;2023-10-08T09:05:59;7.10;;;6.13;;
1366;SDS011;16877;48.810;9.282;2023-10-08T09:08:27;8.20;;;5.60;;
1366;SDS011;16877;48.810;9.282;2023-10-08T09:10:56;9.00;;;5.57;;
1366;SDS011;16877;48.810;9.282;2023-10-08T09:13:26;10.77;;;6.10;;
1366;SDS011;16877;48.810;9.282;2023-10-08T09:15:56;5.40;;;4.63;;
1366;SDS011;16877;48.810;9.282;2023-10-08T09:18:24;10.00;;;5.90;;
1366;SDS011;16877;48.810;9.282;2023-10-08T09:20:52;6.83;;;5.43;;
1366;SDS011;16877;48.810;9.282;2023-10-08T09:23:21;8.10;;;4.90;;
1366;SDS011;16877;48.810;9.282;2023-10-08T09:25:50;11.00;;;5.30;;
1366;SDS011;16877;48.810;9.282;2023-10-08T09:28:24;6.00;;;4.47;;
1366;SDS011;16877;48.810;9.282;2023-10-08T09:30:51;6.77;;;4.50;;
1366;SDS011;16877;48.810;9.282;2023-10-08T09:33:20;6.90;;;4.63;;
1366;SDS011;16877;48.810;9.282;2023-10-08T09:35:47;5.90;;;4.40;;
1366;SDS011;16877;48.810;9.282;2023-10-08T09:38:14;6.10;;;4.00;;
1366;SDS011;16877;48.810;9.282;2023-10-08T09:40:48;6.13;;;4.03;;
1366;SDS011;16877;48.810;9.282;2023-10-08T09:43:17;5.87;;;4.50;;
1366;SDS011;16877;48.810;9.282;2023-10-08T09:45:46;17.00;;;5.37;;
1366;SDS011;16877;48.810;9.282;2023-10-08T09:48:17;6.10;;;3.83;;
1366;SDS011;16877;48.810;9.282;2023-10-08T09:50:47;6.60;;;4.23;;
1366;SDS011;16877;48.810;9.282;2023-10-08T09:53:16;6.20;;;4.10;;
1366;SDS011;16877;48.810;9.282;2023-10-08T09:55:52;5.23;;;4.17;;
1366;SDS011;16877;48.810;9.282;2023-10-08T09:58:20;6.73;;;4.37;;
1366;SDS011;16877;48.810;9.282;2023-10-08T10:00:49;7.73;;;4.90;;
1366;SDS011;16877;48.810;9.282;2023-10-08T10:03:17;6.20;;;4.20;;
1366;SDS011;16877;48.810;9.282;2023-10-08T10:05:47;11.13;;;4.33;;
1366;SDS011;16877;48.810;9.282;2023-10-08T10:08:14;4.30;;;3.40;;
1366;SDS011;16877;48.810;9.282;2023-10-08T10:10:41;6.83;;;4.53;;
1366;SDS011;16877;48.810;9.282;2023-10-08T10:13:16;6.20;;;4.67;;
1366;SDS011;16877;48.810;9.282;2023-10-08T10:15:43;7.73;;;3.60;;
1366;SDS011;16877;48.810;9.282;2023-10-08T10:18:12;7.03;;;4.43;;
1366;SDS011;16877;48.810;9.282;2023-10-08T10:20:40;6.90;;;4.50;;
1366;SDS011;16877;48.810;9.282;2023-10-08T10:26:04;5.43;;;4.23;;
1366;SDS011;16877;48.810;9.282;2023-10-08T10:28:56;4.13;;;3.13;;
1366;SDS011;16877;48.810;9.282;2023-10-08T10:31:47;4.67;;;3.63;;
1366;SDS011;16877;48.810;9.282;2023-10-08T10:34:16;8.60;;;4.03;;
1366;SDS011;16877;48.810;9.282;2023-10-08T10:36:44;6.07;;;4.20;;
1366;SDS011;16877;48.810;9.282;2023-10-08T10:39:13;5.77;;;4.00;;
1366;SDS011;16877;48.810;9.282;2023-10-08T10:41:42;6.10;;;4.30;;
1366;SDS011;16877;48.810;9.282;2023-10-08T10:44:11;5.80;;;4.17;;
1366;SDS011;16877;48.810;9.282;2023-10-08T10:46:39;5.17;;;4.10;;
1366;SDS011;16877;48.810;9.282;2023-10-08T10:49:07;7.23;;;4.90;;
1366;SDS011;16877;48.810;9.282;2023-10-08T10:51:43;5.67;;;4.13;;
1366;SDS011;16877;48.810;9.282;2023-10-08T10:54:11;5.27;;;3.60;;
1366;SDS011;16877;48.810;9.282;2023-10-08T10:56:45;6.20;;;4.17;;
1366;SDS011;16877;48.810;9.282;2023-10-08T10:59:13;5.50;;;4.20;;
1366;SDS011;16877;48.810;9.282;2023-10-08T11:01:46;6.50;;;4.73;;
1366;SDS011;16877;48.810;9.282;2023-10-08T11:04:17;5.67;;;4.07;;
1366;SDS011;16877;48.810;9.282;2023-10-08T11:06:45;5.80;;;4.60;;
1366;SDS011;16877;48.810;9.282;2023-10-08T11:09:13;6.13;;;4.23;;
1366;SDS011;16877;48.810;9.282;2023-10-08T11:11:41;6.50;;;4.80;;
1366;SDS011;16877;48.810;9.282;2023-10-08T11:14:11;7.70;;;4.43;;
1366;SDS011;16877;48.810;9.282;2023-10-08T11:16:45;6.00;;;4.20;;
1366;SDS011;16877;48.810;9.282;2023-10-08T11:19:13;5.67;;;4.00;;
1366;SDS011;16877;48.810;9.282;2023-10-08T11:21:48;5.47;;;4.17;;
1366;SDS011;16877;48.810;9.282;2023-10-08T11:24:26;6.00;;;4.37;;
1366;SDS011;16877;48.810;9.282;2023-10-08T11:26:54;5.87;;;4.60;;
1366;SDS011;16877;48.810;9.282;2023-10-08T11:29:31;5.80;;;4.27;;
1366;SDS011;16877;48.810;9.282;2023-10-08T11:32:00;7.27;;;4.77;;
1366;SDS011;16877;48.810;9.282;2023-10-08T11:34:32;5.90;;;4.50;;
1366;SDS011;16877;48.810;9.282;2023-10-08T11:37:03;5.77;;;4.57;;
1366;SDS011;16877;48.810;9.282;2023-10-08T11:39:38;5.77;;;4.60;;
1366;SDS011;16877;48.810;9.282;2023-10-08T11:42:10;9.47;;;4.90;;
1366;SDS011;16877;48.810;9.282;2023-10-08T11:45:03;6.77;;;4.77;;
1366;SDS011;16877;48.810;9.282;2023-10-08T11:47:44;7.30;;;4.00;;
1366;SDS011;16877;48.810;9.282;2023-10-08T11:50:13;5.97;;;3.80;;
1366;SDS011;16877;48.810;9.282;2023-10-08T11:52:44;6.53;;;4.60;;
1366;SDS011;16877;48.810;9.282;2023-10-08T11:55:11;7.57;;;4.53;;
1366;SDS011;16877;48.810;9.282;2023-10-08T11:57:43;6.63;;;4.73;;
1366;SDS011;16877;48.810;9.282;2023-10-08T12:00:13;13.57;;;7.63;;
1366;SDS011;16877;48.810;9.282;2023-10-08T12:02:46;12.30;;;6.27;;
1366;SDS011;16877;48.810;9.282;2023-10-08T12:05:13;12.73;;;6.70;;
1366;SDS011;16877;48.810;9.282;2023-10-08T12:07:45;14.57;;;6.73;;
1366;SDS011;16877;48.810;9.282;2023-10-08T12:10:12;10.63;;;6.57;;
1366;SDS011;16877;48.810;9.282;2023-10-08T12:12:41;12.20;;;6.47;;
1366;SDS011;16877;48.810;9.282;2023-10-08T12:15:10;14.83;;;7.67;;
1366;SDS011;16877;48.810;9.282;2023-10-08T12:17:45;11.03;;;5.73;;
1366;SDS011;16877;48.810;9.282;2023-10-08T12:20:33;11.23;;;6.90;;
1366;SDS011;16877;48.810;9.282;2023-10-08T12:23:02;11.50;;;6.90;;
1366;SDS011;16877;48.810;9.282;2023-10-08T12:25:29;9.27;;;5.37;;
1366;SDS011;16877;48.810;9.282;2023-10-08T12:27:57;10.40;;;6.00;;
1366;SDS011;16877;48.810;9.282;2023-10-08T12:30:27;8.50;;;5.53;;
1366;SDS011;16877;48.810;9.282;2023-10-08T12:32:57;12.60;;;6.27;;
1366;SDS011;16877;48.810;9.282;2023-10-08T12:35:25;6.57;;;5.40;;
1366;SDS011;16877;48.810;9.282;2023-10-08T12:37:54;8.03;;;5.20;;
1366;SDS011;16877;48.810;9.282;2023-10-08T12:40:22;12.07;;;5.70;;
1366;SDS011;16877;48.810;9.282;2023-10-08T12:42:49;10.00;;;5.77;;
1366;SDS011;16877;48.810;9.282;2023-10-08T12:45:16;7.17;;;5.23;;
1366;SDS011;16877;48.810;9.282;2023-10-08T12:47:46;8.10;;;6.37;;
1366;SDS011;16877;48.810;9.282;2023-10-08T12:50:16;10.57;;;6.10;;
1366;SDS011;16877;48.810;9.282;2023-10-08T12:52:48;9.13;;;5.93;;
1366;SDS011;16877;48.810;9.282;2023-10-08T12:55:20;10.70;;;6.13;;
1366;SDS011;16877;48.810;9.282;2023-10-08T12:57:49;9.13;;;4.90;;
1366;SDS011;16877;48.810;9.282;2023-10-08T13:00:21;8.20;;;5.33;;
1366;SDS011;16877;48.810;9.282;2023-10-08T13:02:49;7.60;;;5.20;;
1366;SDS011;16877;48.810;9.282;2023-10-08T13:05:20;8.87;;;6.00;;
1366;SDS011;16877;48.810;9.282;2023-10-08T13:07:53;6.87;;;5.23;;
1366;SDS011;16877;48.810;9.282;2023-10-08T13:10:20;10.10;;;5.80;;
1366;SDS011;16877;48.810;9.282;2023-10-08T13:12:48;6.60;;;4.60;;
1366;SDS011;16877;48.810;9.282;2023-10-08T13:15:14;8.67;;;4.90;;
1366;SDS011;16877;48.810;9.282;2023-10-08T13:17:41;7.13;;;5.00;;
1366;SDS011;16877;48.810;9.282;2023-10-08T13:20:10;8.80;;;5.47;;
1366;SDS011;16877;48.810;9.282;2023-10-08T13:22:39;7.87;;;5.20;;
1366;SDS011;16877;48.810;9.282;2023-10-08T13:25:06;8.00;;;5.80;;
1366;SDS011;16877;48.810;9.282;2023-10-08T13:27:33;7.80;;;5.53;;
1366;SDS011;16877;48.810;9.282;2023-10-08T13:30:04;7.10;;;4.80;;
1366;SDS011;16877;48.810;9.282;2023-10-08T13:32:33;8.80;;;5.90;;
1366;SDS011;16877;48.810;9.282;2023-10-08T13:35:01;9.70;;;5.67;;
1366;SDS011;16877;48.810;9.282;2023-10-08T13:37:29;8.70;;;5.03;;
1366;SDS011;16877;48.810;9.282;2023-10-08T13:39:57;11.27;;;5.67;;
1366;SDS011;16877;48.810;9.282;2023-10-08T13:42:24;6.27;;;4.90;;
1366;SDS011;16877;48.810;9.282;2023-10-08T13:44:52;8.87;;;5.37;;
1366;SDS011;16877;48.810;9.282;2023-10-08T13:47:18;8.93;;;4.70;;
1366;SDS011;16877;48.810;9.282;2023-10-08T13:49:49;10.70;;;5.63;;
1366;SDS011;16877;48.810;9.282;2023-10-08T13:52:17;9.40;;;5.63;;
1366;SDS011;16877;48.810;9.282;2023-10-08T13:54:45;8.83;;;5.80;;
1366;SDS011;16877;48.810;9.282;2023-10-08T13:57:18;8.73;;;4.93;;
1366;SDS011;16877;48.810;9.282;2023-10-08T13:59:45;7.37;;;5.17;;
1366;SDS011;16877;48.810;9.282;2023-10-08T14:02:13;8.50;;;5.30;;
1366;SDS011;16877;48.810;9.282;2023-10-08T14:04:46;7.03;;;4.37;;
1366;SDS011;16877;48.810;9.282;2023-10-08T14:07:15;6.67;;;4.67;;
1366;SDS011;16877;48.810;9.282;2023-10-08T14:09:42;7.13;;;5.40;;
1366;SDS011;16877;48.810;9.282;2023-10-08T14:12:10;5.90;;;4.67;;
1366;SDS011;16877;48.810;9.282;2023-10-08T14:14:40;6.90;;;4.73;;
1366;SDS011;16877;48.810;9.282;2023-10-08T14:17:08;6.90;;;4.13;;
1366;SDS011;16877;48.810;9.282;2023-10-08T14:19:40;7.30;;;4.70;;
1366;SDS011;16877;48.810;9.282;2023-10-08T14:22:11;6.87;;;4.50;;
1366;SDS011;16877;48.810;9.282;2023-10-08T14:24:40;6.63;;;4.70;;
1366;SDS011;16877;48.810;9.282;2023-10-08T14:27:06;8.70;;;4.70;;
1366;SDS011;16877;48.810;9.282;2023-10-08T14:29:36;7.23;;;4.60;;
1366;SDS011;16877;48.810;9.282;2023-10-08T14:32:06;8.17;;;5.53;;
1366;SDS011;16877;48.810;9.282;2023-10-08T14:34:34;5.70;;;4.10;;
1366;SDS011;16877;48.810;9.282;2023-10-08T14:37:19;7.20;;;4.60;;
1366;SDS011;16877;48.810;9.282;2023-10-08T14:40:04;6.43;;;4.80;;
1366;SDS011;16877;48.810;9.282;2023-10-08T14:42:49;6.20;;;4.80;;
1366;SDS011;16877;48.810;9.282;2023-10-08T14:45:24;8.30;;;5.30;;
1366;SDS011;16877;48.810;9.282;2023-10-08T14:47:54;8.03;;;4.80;;
1366;SDS011;16877;48.810;9.282;2023-10-08T14:50:21;8.47;;;5.27;;
1366;SDS011;16877;48.810;9.282;2023-10-08T14:52:52;10.07;;;5.10;;
1366;SDS011;16877;48.810;9.282;2023-10-08T14:55:19;6.70;;;5.10;;
1366;SDS011;16877;48.810;9.282;2023-10-08T14:57:47;5.47;;;3.97;;
1366;SDS011;16877;48.810;9.282;2023-10-08T15:00:16;7.60;;;4.37;;
1366;SDS011;16877;48.810;9.282;2023-10-08T15:02:49;7.67;;;4.60;;
1366;SDS011;16877;48.810;9.282;2023-10-08T15:05:18;5.83;;;3.87;;
1366;SDS011;16877;48.810;9.282;2023-10-08T15:07:46;7.13;;;4.73;;
1366;SDS011;16877;48.810;9.282;2023-10-08T15:10:14;7.60;;;4.40;;
1366;SDS011;16877;48.810;9.282;2023-10-08T15:12:42;6.70;;;4.80;;
1366;SDS011;16877;48.810;9.282;2023-10-08T15:15:09;8.10;;;4.23;;
1366;SDS011;16877;48.810;9.282;2023-10-08T15:17:39;6.50;;;4.10;;
1366;SDS011;16877;48.810;9.282;2023-10-08T15:20:06;6.47;;;4.10;;
1366;SDS011;16877;48.810;9.282;2023-10-08T15:22:40;8.13;;;4.60;;
1366;SDS011;16877;48.810;9.282;2023-10-08T15:25:08;6.67;;;4.10;;
1366;SDS011;16877;48.810;9.282;2023-10-08T15:27:36;6.53;;;3.67;;